Time;durP1;ratioP1;P1;durP2;ratioP2;P2;SDS_P1;SDS_P2;PMS_P1;PMS_P2;Temp;Humidity;BMP_temperature;BMP_pressure;BME280_temperature;BME280_humidity;BME280_pressure;Samples;Min_cycle;Max_cycle;Signal;HPM_P1;HPM_P2
2023/04/04 00:00:30;;;;;;;0.10;0.10;;;;;;;8.46;78.62;99609.72;4943598;28;20052;-67
2023/04/04 00:02:56;;;;;;;0.10;0.10;;;;;;;8.48;78.35;99614.91;4930320;29;20047;-67
2023/04/04 00:05:22;;;;;;;0.10;0.10;;;;;;;8.41;78.46;99598.81;4929923;28;20263;-67
2023/04/04 00:07:50;;;;;;;0.10;0.10;;;;;;;8.46;78.32;99611.66;4941753;28;20672;-67
2023/04/04 00:10:16;;;;;;;0.10;0.10;;;;;;;8.41;78.48;99604.25;4929157;29;20051;-68
2023/04/04 00:12:43;;;;;;;0.10;0.10;;;;;;;8.40;78.71;99608.06;4928496;29;20059;-67
2023/04/04 00:15:10;;;;;;;0.10;0.10;;;;;;;8.38;78.80;99604.78;4932030;29;20055;-67
2023/04/04 00:17:36;;;;;;;0.20;0.20;;;;;;;8.33;78.69;99600.13;4931303;29;20059;-67
2023/04/04 00:20:03;;;;;;;0.10;0.10;;;;;;;8.30;78.89;99602.56;4927735;29;20476;-67
2023/04/04 00:22:30;;;;;;;0.10;0.10;;;;;;;8.29;78.91;99607.22;4928806;29;20048;-67
2023/04/04 00:24:57;;;;;;;0.10;0.10;;;;;;;8.28;78.94;99611.03;4945346;28;20098;-69
2023/04/04 00:27:24;;;;;;;0.35;0.10;;;;;;;8.23;79.01;99605.53;4928690;29;20052;-69
2023/04/04 00:29:50;;;;;;;0.17;0.10;;;;;;;8.16;79.04;99604.94;4928412;29;20048;-68
2023/04/04 00:32:16;;;;;;;0.10;0.10;;;;;;;8.07;79.42;99607.34;4943725;28;20048;-68
2023/04/04 00:34:42;;;;;;;0.10;0.10;;;;;;;8.05;79.58;99613.03;4942471;28;20135;-69
2023/04/04 00:37:11;;;;;;;0.10;0.10;;;;;;;8.05;79.71;99609.53;4943972;28;20532;-69
2023/04/04 00:39:37;;;;;;;0.10;0.10;;;;;;;8.02;79.80;99608.13;4929433;29;20052;-69
2023/04/04 00:42:05;;;;;;;0.15;0.15;;;;;;;7.99;79.86;99607.81;4928880;28;20043;-69
2023/04/04 00:44:31;;;;;;;0.10;0.10;;;;;;;7.87;80.01;99599.84;4941416;28;20055;-69
2023/04/04 00:46:57;;;;;;;0.10;0.10;;;;;;;7.83;80.28;99601.47;4941660;28;20082;-68
2023/04/04 00:49:23;;;;;;;0.10;0.10;;;;;;;7.79;80.71;99601.16;4929202;29;20047;-69
2023/04/04 00:51:49;;;;;;;0.10;0.10;;;;;;;7.76;80.89;99597.06;4927610;29;20232;-68
2023/04/04 00:54:16;;;;;;;0.10;0.10;;;;;;;7.77;81.04;99603.34;4943041;29;20091;-67
2023/04/04 00:56:42;;;;;;;0.10;0.10;;;;;;;7.75;80.98;99608.22;4944128;28;20048;-68
2023/04/04 00:59:10;;;;;;;0.20;0.20;;;;;;;7.76;81.14;99610.66;4942116;28;20161;-67
2023/04/04 01:01:36;;;;;;;0.10;0.10;;;;;;;7.79;81.28;99607.41;4942727;28;20055;-67
2023/04/04 01:04:04;;;;;;;0.25;0.10;;;;;;;7.86;80.80;99611.84;4941982;28;20070;-68
2023/04/04 01:06:31;;;;;;;0.10;0.10;;;;;;;7.89;80.74;99608.59;4928848;29;20051;-66
2023/04/04 01:08:58;;;;;;;0.10;0.10;;;;;;;7.89;80.50;99603.13;4927633;29;20087;-67
2023/04/04 01:11:25;;;;;;;0.10;0.10;;;;;;;7.89;80.63;99603.97;4925324;29;20058;-68
2023/04/04 01:13:51;;;;;;;;;;;;;;;7.91;80.50;99603.69;4942068;28;20051;-68
2023/04/04 01:16:19;;;;;;;0.10;0.10;;;;;;;7.93;80.35;99607.81;4941275;28;19978;-68
2023/04/04 01:18:47;;;;;;;0.10;0.10;;;;;;;7.90;80.29;99602.88;4930598;29;20051;-68
2023/04/04 01:21:20;;;;;;;0.10;0.10;;;;;;;7.96;80.23;99598.31;4942632;28;20043;-67
2023/04/04 01:23:55;;;;;;;0.10;0.10;;;;;;;7.90;80.16;99594.72;4926849;29;20115;-67
2023/04/04 01:26:25;;;;;;;0.10;0.10;;;;;;;7.93;80.11;99587.91;4941560;28;20054;-67
2023/04/04 01:28:53;;;;;;;0.10;0.10;;;;;;;7.97;80.06;99590.94;4926223;29;20549;-67
2023/04/04 01:31:25;;;;;;;0.10;0.10;;;;;;;7.96;79.97;99601.03;4928556;29;20052;-68
2023/04/04 01:33:58;;;;;;;0.10;0.10;;;;;;;7.96;80.08;99587.41;4942826;28;20052;-68
2023/04/04 01:36:30;;;;;;;0.25;0.15;;;;;;;7.98;79.93;99595.31;4927736;29;20062;-67
2023/04/04 01:39:02;;;;;;;0.10;0.10;;;;;;;7.98;80.11;99587.97;4931632;28;20051;-67
2023/04/04 01:41:32;;;;;;;0.10;0.10;;;;;;;7.95;80.00;99583.84;4942986;28;20043;-67
2023/04/04 01:44:00;;;;;;;0.10;0.10;;;;;;;7.98;80.10;99590.69;4943202;28;20043;-67
2023/04/04 01:46:27;;;;;;;0.10;0.10;;;;;;;7.99;79.81;99589.59;4940564;28;20079;-67
2023/04/04 01:48:53;;;;;;;0.13;0.13;;;;;;;7.98;80.00;99595.31;4926879;29;20095;-67
2023/04/04 01:51:27;;;;;;;0.10;0.10;;;;;;;7.96;80.07;99595.56;4940289;28;20079;-67
2023/04/04 01:53:53;;;;;;;;;;;;;;;7.93;80.25;99598.81;4943966;28;20047;-67
2023/04/04 01:56:19;;;;;;;0.10;0.10;;;;;;;7.89;80.26;99595.81;4928524;28;19927;-67
2023/04/04 01:58:47;;;;;;;0.10;0.10;;;;;;;7.85;80.31;99594.66;4924490;29;20056;-67
2023/04/04 02:01:13;;;;;;;0.10;0.10;;;;;;;7.81;80.39;99585.38;4940473;28;20055;-67
2023/04/04 02:03:39;;;;;;;0.10;0.10;;;;;;;7.73;80.71;99589.41;4928339;29;20083;-67
2023/04/04 02:06:06;;;;;;;0.15;0.15;;;;;;;7.66;80.95;99597.81;4929216;29;20048;-67
2023/04/04 02:08:32;;;;;;;0.13;0.13;;;;;;;7.60;80.99;99585.25;4942176;28;20519;-67
2023/04/04 02:10:59;;;;;;;0.10;0.10;;;;;;;7.58;81.35;99601.03;4943043;28;20102;-67
2023/04/04 02:13:26;;;;;;;0.38;0.20;;;;;;;7.55;81.06;99596.06;4943816;28;20051;-67
2023/04/04 02:15:54;;;;;;;0.10;0.10;;;;;;;7.50;81.31;99594.16;4945630;28;20055;-67
2023/04/04 02:18:21;;;;;;;0.45;0.20;;;;;;;7.51;81.23;99600.41;4930395;29;20435;-68
2023/04/04 02:20:55;;;;;;;0.20;0.20;;;;;;;7.48;81.28;99599.00;4941125;29;20051;-68
2023/04/04 02:23:21;;;;;;;0.10;0.10;;;;;;;7.54;81.25;99599.06;4943209;29;20103;-68
2023/04/04 02:25:49;;;;;;;0.10;0.10;;;;;;;7.46;81.12;99582.13;4944033;29;20056;-68
2023/04/04 02:28:16;;;;;;;0.10;0.10;;;;;;;7.50;81.08;99591.44;4941766;28;20586;-68
2023/04/04 02:30:42;;;;;;;0.10;0.10;;;;;;;7.46;81.22;99584.84;4941663;29;20058;-68
2023/04/04 02:33:09;;;;;;;0.10;0.10;;;;;;;7.55;81.21;99592.56;4926904;29;20050;-68
2023/04/04 02:35:36;;;;;;;0.10;0.10;;;;;;;7.55;81.15;99592.56;4943839;28;20062;-68
2023/04/04 02:38:02;;;;;;;0.10;0.10;;;;;;;7.62;80.93;99590.41;4942222;29;20051;-67
2023/04/04 02:40:38;;;;;;;0.10;0.10;;;;;;;7.69;80.66;99584.75;4940409;28;20076;-68
2023/04/04 02:43:04;;;;;;;0.10;0.10;;;;;;;7.73;80.43;99594.88;4941065;28;20055;-68
2023/04/04 02:45:31;;;;;;;0.10;0.10;;;;;;;7.73;80.38;99589.41;4941058;28;20143;-68
2023/04/04 02:48:11;;;;;;;0.10;0.10;;;;;;;7.79;80.05;99593.00;4927442;29;20429;-67
2023/04/04 02:50:42;;;;;;;0.10;0.10;;;;;;;7.78;80.08;99594.09;4925561;29;20095;-68
2023/04/04 02:53:10;;;;;;;0.10;0.10;;;;;;;7.74;80.08;99587.53;4942967;28;20052;-67
2023/04/04 02:55:37;;;;;;;0.10;0.10;;;;;;;7.73;80.12;99591.34;4942941;28;20044;-67
2023/04/04 02:58:03;;;;;;;0.10;0.10;;;;;;;7.74;80.15;99595.69;4924940;29;20078;-67
2023/04/04 03:00:29;;;;;;;0.20;0.20;;;;;;;7.73;80.24;99592.13;4939621;28;20043;-67
2023/04/04 03:02:56;;;;;;;0.10;0.10;;;;;;;7.74;80.03;99595.69;4924951;29;20478;-67
2023/04/04 03:05:30;;;;;;;0.10;0.10;;;;;;;7.78;79.85;99594.09;4942428;28;20059;-67
2023/04/04 03:07:57;;;;;;;0.10;0.10;;;;;;;7.66;80.04;99584.19;4940594;28;20102;-67
2023/04/04 03:10:25;;;;;;;0.10;0.10;;;;;;;7.75;79.93;99595.41;4922905;29;20064;-68
2023/04/04 03:12:51;;;;;;;0.10;0.10;;;;;;;7.74;79.87;99592.97;4941583;28;20055;-67
2023/04/04 03:15:18;;;;;;;0.10;0.10;;;;;;;7.72;79.79;99595.94;4929016;29;20107;-67
2023/04/04 03:17:44;;;;;;;0.10;0.10;;;;;;;7.73;79.96;99591.34;4928047;29;20083;-67
2023/04/04 03:20:12;;;;;;;0.20;0.20;;;;;;;7.66;80.06;99592.34;4928482;29;20054;-67
2023/04/04 03:22:40;;;;;;;;;;;;;;;7.66;80.00;99595.09;4940546;28;20507;-68
2023/04/04 03:25:06;;;;;;;0.10;0.10;;;;;;;7.66;79.99;99599.72;4927462;29;19927;-68
2023/04/04 03:27:33;;;;;;;0.10;0.10;;;;;;;7.64;79.93;99596.41;4945186;28;20531;-67
2023/04/04 03:30:00;;;;;;;0.10;0.10;;;;;;;7.66;79.86;99603.25;4946279;28;20090;-67
2023/04/04 03:32:30;;;;;;;0.10;0.10;;;;;;;7.67;80.23;99606.81;4944998;29;20360;-67
2023/04/04 03:34:56;;;;;;;0.10;0.10;;;;;;;7.72;80.06;99608.72;4945536;28;20053;-67
2023/04/04 03:37:23;;;;;;;0.20;0.20;;;;;;;7.73;79.97;99605.75;4928559;29;20106;-67
2023/04/04 03:39:50;;;;;;;0.10;0.10;;;;;;;7.75;79.78;99598.13;4927468;29;20055;-67
2023/04/04 03:42:16;;;;;;;0.20;0.20;;;;;;;7.76;79.67;99602.50;4946037;28;20094;-68
2023/04/04 03:44:43;;;;;;;0.10;0.10;;;;;;;7.73;79.60;99603.03;4930081;29;20422;-67
2023/04/04 03:47:16;;;;;;;0.15;0.15;;;;;;;7.73;79.75;99597.59;4929768;29;20075;-67
2023/04/04 03:49:43;;;;;;;0.10;0.10;;;;;;;7.69;79.66;99603.81;4947793;28;20048;-67
2023/04/04 03:52:10;;;;;;;0.10;0.10;;;;;;;7.68;79.78;99599.44;4929096;29;20075;-67
2023/04/04 03:54:36;;;;;;;0.10;0.10;;;;;;;7.71;79.67;99596.19;4942918;28;20085;-68
2023/04/04 03:57:06;;;;;;;;;;;;;;;7.68;79.71;99594.00;4915628;29;20523;-68
2023/04/04 03:59:32;;;;;;;0.10;0.10;;;;;;;7.62;79.27;99588.53;4946462;28;20361;-68
2023/04/04 04:01:58;;;;;;;0.10;0.10;;;;;;;7.71;79.44;99599.75;4945541;28;20060;-68
2023/04/04 04:04:24;;;;;;;0.10;0.10;;;;;;;7.75;79.38;99600.84;4944057;28;20043;-68
2023/04/04 04:06:50;;;;;;;0.20;0.20;;;;;;;7.78;79.42;99602.25;4941835;28;20043;-68
2023/04/04 04:09:17;;;;;;;0.10;0.10;;;;;;;7.78;79.48;99605.78;4943756;28;20056;-68
2023/04/04 04:11:44;;;;;;;0.10;0.10;;;;;;;7.77;79.44;99609.59;4929798;29;20060;-68
2023/04/04 04:14:11;;;;;;;0.10;0.10;;;;;;;7.76;79.49;99605.22;4927009;29;20056;-68
2023/04/04 04:16:39;;;;;;;0.10;0.10;;;;;;;7.76;79.63;99605.22;4927895;29;20043;-68
2023/04/04 04:19:05;;;;;;;0.10;0.10;;;;;;;7.75;79.69;99602.78;4947375;28;20684;-68
2023/04/04 04:21:36;;;;;;;0.17;0.17;;;;;;;7.78;79.50;99600.34;4945384;29;20574;-68
2023/04/04 04:24:03;;;;;;;0.10;0.10;;;;;;;7.82;79.49;99599.84;4946500;28;20146;-68
2023/04/04 04:26:29;;;;;;;0.10;0.10;;;;;;;7.82;79.50;99603.38;4944603;28;20510;-68
2023/04/04 04:28:55;;;;;;;0.10;0.10;;;;;;;7.85;79.32;99600.09;4926619;29;20144;-68
2023/04/04 04:31:30;;;;;;;0.10;0.10;;;;;;;7.89;79.20;99595.81;4944513;28;20048;-68
2023/04/04 04:33:56;;;;;;;0.10;0.10;;;;;;;7.97;78.78;99599.09;4942927;28;20062;-68
2023/04/04 04:36:27;;;;;;;0.10;0.10;;;;;;;8.02;78.58;99599.97;4944829;28;20055;-68
2023/04/04 04:39:13;;;;;;;0.10;0.10;;;;;;;8.14;78.39;99599.75;4928266;29;20059;-68
2023/04/04 04:41:49;;;;;;;0.10;0.10;;;;;;;8.25;77.65;99608.78;4945489;28;20415;-68
2023/04/04 04:44:15;;;;;;;0.10;0.10;;;;;;;8.31;77.19;99610.47;4943644;28;20048;-68
2023/04/04 04:46:43;;;;;;;0.10;0.10;;;;;;;8.37;76.97;99612.13;4944717;28;20071;-68
2023/04/04 04:49:13;;;;;;;0.10;0.10;;;;;;;8.43;76.81;99612.97;4945221;28;20099;-68
2023/04/04 04:51:43;;;;;;;0.13;0.13;;;;;;;8.48;76.49;99610.28;4942850;28;20051;-68
2023/04/04 04:54:10;;;;;;;0.10;0.10;;;;;;;8.56;76.40;99619.06;4945919;28;20048;-68
2023/04/04 04:56:38;;;;;;;0.20;0.20;;;;;;;8.61;75.96;99624.53;4943078;28;20583;-68
2023/04/04 04:59:10;;;;;;;0.20;0.20;;;;;;;8.65;75.75;99626.47;4945605;28;20079;-68
2023/04/04 05:01:38;;;;;;;0.10;0.10;;;;;;;8.75;75.33;99614.78;4944528;28;20058;-68
2023/04/04 05:04:06;;;;;;;0.10;0.10;;;;;;;8.81;75.16;99621.06;4944469;28;20048;-68
2023/04/04 05:06:40;;;;;;;0.10;0.10;;;;;;;8.89;75.02;99617.00;4927970;29;20047;-68
2023/04/04 05:09:08;;;;;;;0.20;0.20;;;;;;;8.94;74.46;99623.31;4927009;29;20142;-68
2023/04/04 05:11:37;;;;;;;0.20;0.20;;;;;;;8.99;74.00;99605.31;4926082;29;20602;-68
2023/04/04 05:14:04;;;;;;;;;;;;;;;9.06;74.04;99609.41;4944289;28;20134;-68
2023/04/04 05:16:35;;;;;;;0.20;0.20;;;;;;;9.16;72.95;99605.09;4930146;28;19961;-68
2023/04/04 05:19:02;;;;;;;0.10;0.10;;;;;;;9.22;73.07;99598.53;4929374;29;20062;-68
2023/04/04 05:21:35;;;;;;;0.10;0.10;;;;;;;9.26;72.79;99596.09;4943518;28;20039;-68
2023/04/04 05:24:05;;;;;;;0.20;0.20;;;;;;;9.32;72.65;99595.00;4945143;28;20423;-68
2023/04/04 05:26:31;;;;;;;;;;;;;;;9.34;72.49;99592.81;4945474;28;20058;-69
2023/04/04 05:28:58;;;;;;;0.20;0.20;;;;;;;9.39;72.17;99592.00;4942703;28;20033;-68
2023/04/04 05:31:26;;;;;;;0.20;0.20;;;;;;;9.45;71.84;99589.00;4936590;29;20044;-68
2023/04/04 05:33:53;;;;;;;0.20;0.20;;;;;;;9.54;71.59;99592.00;4941795;29;20515;-68
2023/04/04 05:36:29;;;;;;;0.20;0.20;;;;;;;9.58;71.54;99593.09;4940758;28;20047;-68
2023/04/04 05:39:03;;;;;;;0.20;0.20;;;;;;;9.74;71.34;99593.09;4943852;28;20047;-68
2023/04/04 05:41:32;;;;;;;0.20;0.20;;;;;;;9.86;70.71;99596.34;4943810;29;20507;-68
2023/04/04 05:44:03;;;;;;;0.20;0.20;;;;;;;9.92;70.34;99598.00;4943618;29;20075;-68
2023/04/04 05:46:29;;;;;;;0.20;0.20;;;;;;;9.97;69.61;99588.97;4945406;29;20048;-68
2023/04/04 05:48:56;;;;;;;0.20;0.20;;;;;;;10.23;69.06;99608.03;4927829;28;20408;-68
2023/04/04 05:51:23;;;;;;;0.13;0.13;;;;;;;10.46;67.56;99606.63;4928517;29;20878;-67
2023/04/04 05:53:57;;;;;;;0.20;0.20;;;;;;;10.55;66.68;99606.06;4924592;29;20052;-68
2023/04/04 05:56:30;;;;;;;0.20;0.20;;;;;;;10.54;66.29;99605.25;4934734;29;20058;-68
2023/04/04 05:58:58;;;;;;;0.20;0.20;;;;;;;10.62;66.26;99610.16;4925791;29;20051;-68
2023/04/04 06:01:28;;;;;;;0.20;0.20;;;;;;;10.60;65.78;99606.03;4926285;29;20044;-68
2023/04/04 06:03:56;;;;;;;0.20;0.20;;;;;;;10.63;65.39;99602.75;4926791;29;20047;-68
2023/04/04 06:06:26;;;;;;;0.20;0.20;;;;;;;10.69;65.26;99598.06;4927250;29;20534;-68
2023/04/04 06:08:52;;;;;;;0.20;0.20;;;;;;;10.74;64.85;99593.41;4941376;29;20094;-68
2023/04/04 06:11:21;;;;;;;0.25;0.25;;;;;;;10.81;64.57;99593.09;4922738;29;20048;-67
2023/04/04 06:13:49;;;;;;;0.20;0.20;;;;;;;10.96;63.90;99605.06;4925132;29;20659;-68
2023/04/04 06:16:16;;;;;;;0.20;0.20;;;;;;;11.27;63.43;99589.25;4596247;28;9999702;-68
2023/04/04 06:18:42;;;;;;;0.20;0.20;;;;;;;11.65;62.35;99599.63;4940993;29;20086;-68
2023/04/04 06:21:09;;;;;;;0.30;0.30;;;;;;;11.96;61.06;99591.13;4940633;28;20788;-68
2023/04/04 06:23:38;;;;;;;0.30;0.30;;;;;;;12.14;60.19;99594.28;4942439;28;20134;-68
2023/04/04 06:26:07;;;;;;;0.20;0.20;;;;;;;12.18;59.50;99595.34;4941497;29;20047;-68
2023/04/04 06:28:34;;;;;;;0.20;0.20;;;;;;;12.14;59.26;99599.75;4922658;29;20497;-68
2023/04/04 06:31:05;;;;;;;0.30;0.30;;;;;;;12.01;59.57;99601.25;4939753;29;20047;-67
2023/04/04 06:33:32;;;;;;;0.20;0.20;;;;;;;12.04;59.58;99598.78;4944267;28;20062;-68
2023/04/04 06:35:58;;;;;;;0.30;0.30;;;;;;;12.18;59.31;99595.34;4929191;29;20055;-67
2023/04/04 06:38:24;;;;;;;0.20;0.20;;;;;;;12.27;58.16;99595.53;4943806;29;20052;-68
2023/04/04 06:40:54;;;;;;;0.10;0.10;;;;;;;12.16;58.32;99597.53;4935859;29;20066;-68
2023/04/04 06:43:21;;;;;;;0.20;0.20;;;;;;;12.16;58.24;99600.28;4944957;29;20056;-68
2023/04/04 06:45:48;;;;;;;0.30;0.30;;;;;;;12.27;58.16;99601.00;4939969;28;20425;-68
2023/04/04 06:48:16;;;;;;;0.30;0.25;;;;;;;12.64;57.15;99596.72;4925968;29;20400;-68
2023/04/04 06:50:42;;;;;;;0.30;0.30;;;;;;;12.94;55.71;99599.34;4943062;28;20099;-67
2023/04/04 06:53:13;;;;;;;0.30;0.30;;;;;;;13.10;55.17;99602.72;4943113;29;20048;-67
2023/04/04 06:55:40;;;;;;;0.30;0.30;;;;;;;13.45;54.65;99595.91;4928169;29;20538;-67
2023/04/04 06:58:06;;;;;;;0.30;0.30;;;;;;;13.44;54.33;99597.00;4925818;29;20130;-67
2023/04/04 07:00:33;;;;;;;0.30;0.30;;;;;;;13.42;53.90;99595.63;4926099;29;20345;-68
2023/04/04 07:02:59;;;;;;;0.30;0.30;;;;;;;13.64;53.51;99605.19;4929053;29;20052;-69
2023/04/04 07:05:28;;;;;;;0.40;0.30;;;;;;;13.87;52.86;99593.28;4933840;29;20051;-67
2023/04/04 07:07:55;;;;;;;0.30;0.30;;;;;;;14.18;51.85;99603.72;4926430;29;20103;-68
2023/04/04 07:10:22;;;;;;;0.30;0.30;;;;;;;14.30;50.69;99600.44;4928524;29;20463;-68
2023/04/04 07:12:48;;;;;;;0.30;0.30;;;;;;;14.27;50.74;99598.31;4928291;29;20159;-68
2023/04/04 07:15:14;;;;;;;0.30;0.30;;;;;;;14.44;50.62;99600.47;4944140;29;20071;-68
2023/04/04 07:17:40;;;;;;;0.38;0.38;;;;;;;14.73;49.48;99590.28;4927542;29;20415;-68
2023/04/04 07:20:07;;;;;;;0.40;0.40;;;;;;;15.24;48.21;99599.34;4930635;29;20165;-68
2023/04/04 07:22:41;;;;;;;0.40;0.40;;;;;;;15.61;47.30;99591.03;4929615;29;20511;-68
2023/04/04 07:25:08;;;;;;;0.40;0.40;;;;;;;15.83;46.70;99594.91;4930167;29;20121;-68
2023/04/04 07:27:34;;;;;;;0.40;0.40;;;;;;;16.02;46.18;99595.50;4932866;29;20147;-68
2023/04/04 07:30:01;;;;;;;0.40;0.40;;;;;;;16.02;46.48;99595.50;4930699;29;20044;-68
2023/04/04 07:32:28;;;;;;;0.30;0.30;;;;;;;15.97;46.58;99594.84;4929425;29;20047;-68
2023/04/04 07:34:54;;;;;;;0.40;0.40;;;;;;;15.70;46.83;99600.16;4926949;29;20035;-68
2023/04/04 07:37:20;;;;;;;0.38;0.38;;;;;;;15.42;47.73;99597.53;4942303;29;20046;-68
2023/04/04 07:39:51;;;;;;;0.30;0.30;;;;;;;15.07;48.19;99601.97;4925617;29;20051;-68
2023/04/04 07:42:21;;;;;;;0.30;0.30;;;;;;;14.73;48.69;99606.78;4928919;29;20055;-68
2023/04/04 07:44:48;;;;;;;0.40;0.40;;;;;;;14.57;49.23;99603.50;4928192;29;20106;-68
2023/04/04 07:47:14;;;;;;;0.40;0.40;;;;;;;14.51;49.20;99607.50;4928413;29;20455;-68
2023/04/04 07:49:41;;;;;;;0.30;0.30;;;;;;;14.36;49.29;99606.66;4942995;28;20062;-68
2023/04/04 07:52:07;;;;;;;0.30;0.30;;;;;;;14.33;49.43;99612.78;4945099;28;20055;-68
2023/04/04 07:54:34;;;;;;;0.30;0.30;;;;;;;14.28;50.11;99607.38;4929741;29;20118;-69
2023/04/04 07:57:04;;;;;;;0.40;0.40;;;;;;;14.25;50.20;99599.72;4928972;29;20063;-68
2023/04/04 07:59:30;;;;;;;0.30;0.30;;;;;;;14.18;50.32;99600.13;4926497;29;20098;-68
2023/04/04 08:01:57;;;;;;;0.30;0.30;;;;;;;14.22;50.29;99608.59;4929208;29;20040;-67
2023/04/04 08:04:23;;;;;;;0.32;0.32;;;;;;;14.18;50.35;99600.97;4942252;29;20147;-67
2023/04/04 08:06:49;;;;;;;0.40;0.40;;;;;;;14.19;50.01;99604.50;4928685;29;20075;-67
2023/04/04 08:09:15;;;;;;;0.38;0.38;;;;;;;14.23;49.90;99601.97;4932636;29;20047;-68
2023/04/04 08:11:42;;;;;;;0.40;0.40;;;;;;;14.27;49.46;99613.97;4928105;29;20447;-69
2023/04/04 08:14:10;;;;;;;0.40;0.40;;;;;;;14.43;49.06;99609.03;4944103;29;20070;-68
2023/04/04 08:16:37;;;;;;;0.50;0.40;;;;;;;14.69;48.30;99611.25;4925835;29;20079;-68
2023/04/04 08:19:03;;;;;;;0.40;0.40;;;;;;;15.53;46.11;99606.38;4944502;29;20063;-68
2023/04/04 08:21:29;;;;;;;0.30;0.30;;;;;;;16.07;45.11;99607.53;4928206;29;20158;-68
2023/04/04 08:23:55;;;;;;;0.30;0.30;;;;;;;16.06;44.76;99603.97;4928612;29;20142;-68
2023/04/04 08:26:22;;;;;;;0.52;0.43;;;;;;;15.76;45.51;99606.38;4929320;29;20442;-68
2023/04/04 08:28:48;;;;;;;0.40;0.40;;;;;;;15.48;45.70;99608.44;4942726;28;20067;-68
2023/04/04 08:31:15;;;;;;;0.40;0.40;;;;;;;15.83;44.87;99606.72;4940366;28;20052;-68
2023/04/04 08:33:41;;;;;;;0.60;0.60;;;;;;;17.11;42.63;99608.22;4595334;28;10000566;-69
2023/04/04 08:36:08;;;;;;;0.77;0.60;;;;;;;18.74;39.13;99601.34;4922952;29;20135;-68
2023/04/04 08:38:34;;;;;;;0.50;0.50;;;;;;;19.93;36.45;99599.41;4924433;29;20427;-68
2023/04/04 08:41:00;;;;;;;0.70;0.40;;;;;;;19.69;36.52;99614.81;4922094;29;20052;-68
2023/04/04 08:43:26;;;;;;;0.40;0.40;;;;;;;19.10;37.82;99608.28;4924012;28;20058;-68
2023/04/04 08:45:53;;;;;;;0.50;0.50;;;;;;;18.63;38.43;99600.88;4924384;29;20134;-68
2023/04/04 08:48:22;;;;;;;0.40;0.40;;;;;;;18.02;38.56;99607.50;4923022;29;20066;-68
2023/04/04 08:50:49;;;;;;;0.60;0.60;;;;;;;17.52;39.67;99603.34;4923340;28;20795;-68
2023/04/04 08:53:15;;;;;;;0.60;0.60;;;;;;;18.62;38.46;99599.28;4920632;29;20063;-69
2023/04/04 08:55:42;;;;;;;0.73;0.68;;;;;;;20.17;35.70;99606.19;4920889;29;20169;-68
2023/04/04 08:58:08;;;;;;;0.60;0.60;;;;;;;21.02;34.02;99597.38;4939898;29;20059;-68
2023/04/04 09:00:34;;;;;;;0.40;0.40;;;;;;;20.67;33.97;99600.66;4922357;29;20466;-68
2023/04/04 09:03:08;;;;;;;0.40;0.40;;;;;;;19.63;35.12;99604.28;4920412;29;20042;-68
2023/04/04 09:05:36;;;;;;;1.02;0.40;;;;;;;18.78;36.89;99607.81;4920268;29;20374;-68
2023/04/04 09:08:05;;;;;;;0.40;0.40;;;;;;;18.23;37.84;99615.88;4927123;29;20083;-68
2023/04/04 09:10:32;;;;;;;0.30;0.30;;;;;;;17.64;39.49;99628.38;4943836;28;20511;-68
2023/04/04 09:12:59;;;;;;;0.30;0.30;;;;;;;17.13;39.89;99620.56;4926865;28;20071;-68
2023/04/04 09:15:25;;;;;;;0.70;0.40;;;;;;;16.70;40.66;99627.59;4928164;29;20039;-68
2023/04/04 09:17:51;;;;;;;0.30;0.30;;;;;;;16.34;41.13;99623.09;4926499;29;20043;-68
2023/04/04 09:20:36;;;;;;;0.40;0.40;;;;;;;16.09;41.87;99627.34;4936966;29;20048;-68
2023/04/04 09:23:06;;;;;;;0.40;0.40;;;;;;;15.76;42.44;99619.31;4938475;28;20654;-68
2023/04/04 09:25:32;;;;;;;0.30;0.30;;;;;;;15.49;43.14;99632.91;4927304;29;20052;-67
2023/04/04 09:28:00;;;;;;;0.30;0.30;;;;;;;15.28;43.61;99632.56;4928389;29;20122;-68
2023/04/04 09:30:26;;;;;;;0.30;0.30;;;;;;;15.07;43.98;99633.03;4926841;29;20059;-68
2023/04/04 09:32:56;;;;;;;0.30;0.30;;;;;;;14.70;44.53;99626.66;4926107;29;20405;-68
2023/04/04 09:35:22;;;;;;;0.30;0.30;;;;;;;14.53;45.37;99636.34;4942463;28;20047;-67
2023/04/04 09:37:51;;;;;;;0.30;0.30;;;;;;;14.44;45.67;99630.72;4909147;29;20062;-68
2023/04/04 09:40:17;;;;;;;0.30;0.30;;;;;;;14.37;45.69;99627.56;4923790;29;20419;-69
2023/04/04 09:42:44;;;;;;;0.30;0.30;;;;;;;14.38;46.05;99631.94;4942747;28;20478;-67
2023/04/04 09:45:10;;;;;;;0.30;0.30;;;;;;;14.41;45.90;99639.56;4924277;29;20617;-67
2023/04/04 09:47:41;;;;;;;0.32;0.32;;;;;;;14.43;45.79;99631.81;4939052;28;20043;-67
2023/04/04 09:50:08;;;;;;;0.40;0.40;;;;;;;14.66;45.44;99628.38;4926202;28;20052;-67
2023/04/04 09:52:34;;;;;;;0.40;0.40;;;;;;;14.93;44.84;99640.50;4923535;28;20051;-67
2023/04/04 09:55:04;;;;;;;0.30;0.30;;;;;;;15.10;44.29;99635.16;4938766;28;20047;-68
2023/04/04 09:57:33;;;;;;;0.40;0.40;;;;;;;15.26;44.30;99643.09;4924518;29;20098;-68
2023/04/04 10:00:01;;;;;;;0.40;0.40;;;;;;;15.29;44.21;99636.94;4923120;29;20481;-68
2023/04/04 10:02:30;;;;;;;0.70;0.50;;;;;;;15.44;43.67;99639.34;4924448;29;20078;-68
2023/04/04 10:04:56;;;;;;;0.40;0.40;;;;;;;15.64;43.69;99639.19;4925846;28;20435;-68
2023/04/04 10:07:24;;;;;;;0.40;0.40;;;;;;;15.78;43.48;99645.44;4924510;29;20055;-68
2023/04/04 10:09:51;;;;;;;0.40;0.40;;;;;;;15.99;42.97;99633.94;4925214;28;20044;-67
2023/04/04 10:12:23;;;;;;;0.43;0.43;;;;;;;16.16;42.37;99633.22;4924542;29;20545;-67
2023/04/04 10:14:55;;;;;;;0.40;0.40;;;;;;;16.18;42.15;99636.47;4925187;29;20102;-68
2023/04/04 10:17:22;;;;;;;0.55;0.55;;;;;;;16.27;41.80;99639.28;4936535;29;20054;-68
2023/04/04 10:19:49;;;;;;;0.50;0.50;;;;;;;16.29;42.18;99637.00;4937732;29;20099;-68
2023/04/04 10:22:16;;;;;;;0.50;0.50;;;;;;;16.29;41.84;99637.84;4937795;28;20044;-68
2023/04/04 10:24:43;;;;;;;0.60;0.60;;;;;;;16.51;41.78;99638.09;4927233;28;20047;-68
2023/04/04 10:27:09;;;;;;;1.10;1.10;;;;;;;17.39;40.39;99636.34;4923476;29;20511;-70
2023/04/04 10:29:37;;;;;;;1.30;1.20;;;;;;;19.71;36.47;99642.19;4924490;29;20463;-67
2023/04/04 10:32:08;;;;;;;1.08;1.08;;;;;;;21.94;33.05;99634.97;4922762;29;20048;-68
2023/04/04 10:34:40;;;;;;;1.30;1.20;;;;;;;23.45;30.17;99641.78;4928864;29;20055;-69
2023/04/04 10:37:12;;;;;;;1.00;0.88;;;;;;;24.07;28.88;99644.63;4930015;28;20043;-69
2023/04/04 10:39:45;;;;;;;0.80;0.80;;;;;;;24.04;28.77;99650.13;4940183;29;20054;-69
2023/04/04 10:42:18;;;;;;;1.10;1.10;;;;;;;23.87;29.03;99649.38;4924593;29;21177;-69
2023/04/04 10:44:47;;;;;;;1.10;1.10;;;;;;;24.56;28.37;99652.63;4928734;29;20542;-68
2023/04/04 10:47:16;;;;;;;0.70;0.70;;;;;;;24.25;27.75;99646.91;4929853;28;20047;-68
2023/04/04 10:49:44;;;;;;;0.70;0.70;;;;;;;23.28;29.55;99649.41;4927344;28;20592;-68
2023/04/04 10:52:12;;;;;;;0.50;0.50;;;;;;;22.67;30.31;99648.78;4928111;29;20414;-68
2023/04/04 10:55:05;;;;;;;0.50;0.50;;;;;;;21.18;31.94;99653.06;4930303;29;20051;-68
2023/04/04 10:57:32;;;;;;;0.55;0.50;;;;;;;19.73;33.61;99655.72;4934326;29;20422;-68
2023/04/04 11:00:04;;;;;;;0.30;0.30;;;;;;;18.93;34.24;99664.59;4923579;29;20161;-68
2023/04/04 11:02:49;;;;;;;0.40;0.40;;;;;;;17.91;35.54;99644.94;4918776;29;20040;-67
2023/04/04 11:05:21;;;;;;;0.40;0.40;;;;;;;17.29;36.19;99650.47;4938953;28;20141;-67
2023/04/04 11:07:52;;;;;;;0.40;0.40;;;;;;;17.05;36.90;99646.22;4925102;29;20563;-67
2023/04/04 11:10:22;;;;;;;0.47;0.47;;;;;;;16.91;37.17;99653.81;4924471;29;20107;-67
2023/04/04 11:12:53;;;;;;;0.40;0.40;;;;;;;16.69;37.79;99649.97;4925533;29;20114;-68
2023/04/04 11:15:22;;;;;;;0.40;0.40;;;;;;;16.34;38.54;99649.84;4923939;29;20601;-67
2023/04/04 11:17:58;;;;;;;0.40;0.40;;;;;;;16.05;38.73;99645.63;4928901;29;20583;-67
2023/04/04 11:20:33;;;;;;;0.30;0.30;;;;;;;15.93;38.94;99648.97;4928374;29;20550;-68
2023/04/04 11:23:07;;;;;;;0.30;0.30;;;;;;;15.86;39.05;99647.47;4942592;29;20051;-68
2023/04/04 11:25:36;;;;;;;0.30;0.30;;;;;;;15.72;39.28;99647.50;4925871;29;20044;-68
2023/04/04 11:28:07;;;;;;;0.40;0.40;;;;;;;15.59;38.64;99653.91;4926564;29;20082;-68
2023/04/04 11:30:46;;;;;;;0.30;0.30;;;;;;;15.49;39.55;99656.91;4922927;29;20070;-68
2023/04/04 11:33:14;;;;;;;0.30;0.30;;;;;;;15.42;40.11;99638.84;4942245;28;20047;-68
2023/04/04 11:35:47;;;;;;;0.57;0.30;;;;;;;15.41;40.26;99642.72;4927657;29;20055;-67
2023/04/04 11:38:17;;;;;;;0.45;0.45;;;;;;;15.36;40.16;99650.28;4926280;29;20154;-68
2023/04/04 11:40:53;;;;;;;0.35;0.35;;;;;;;15.17;40.01;99643.84;4927179;29;20074;-68
2023/04/04 11:43:19;;;;;;;0.43;0.40;;;;;;;15.16;40.20;99652.41;4940773;28;20094;-68